Time;durP1;ratioP1;P1;durP2;ratioP2;P2;SDS_P1;SDS_P2;PMS_P1;PMS_P2;Temp;Humidity;BMP_temperature;BMP_pressure;BME280_temperature;BME280_humidity;BME280_pressure;Samples;Min_cycle;Max_cycle;Signal;HPM_P1;HPM_P2
2024/04/11 00:00:55;;;;;;;5.60;4.10;;;;;;;21.01;31.72;101304.42;102724;1300;70039;-86
2024/04/11 00:03:20;;;;;;;5.00;3.80;;;;;;;21.01;31.80;101305.70;102900;1299;70014;-86
2024/04/11 00:05:46;;;;;;;3.90;3.50;;;;;;;21.01;31.63;101309.73;102618;1304;462073;-86
2024/04/11 00:08:12;;;;;;;5.10;3.60;;;;;;;21.01;31.76;101310.70;102808;1300;69991;-86
2024/04/11 00:10:38;;;;;;;5.20;3.70;;;;;;;21.01;31.66;101314.23;102934;1300;70001;-86
2024/04/11 00:13:03;;;;;;;5.50;4.10;;;;;;;21.00;31.84;101314.44;102926;1305;70521;-87
2024/04/11 00:15:29;;;;;;;4.90;4.10;;;;;;;21.00;31.77;101313.48;102779;1305;70431;-86
2024/04/11 00:17:55;;;;;;;4.20;3.80;;;;;;;21.00;31.79;101314.13;102760;1300;70035;-86
2024/04/11 00:20:23;;;;;;;6.70;3.80;;;;;;;21.00;31.93;101314.27;102825;1300;70146;-86
2024/04/11 00:22:50;;;;;;;6.10;3.80;;;;;;;21.00;31.78;101311.16;102782;1300;75563;-86
2024/04/11 00:25:16;;;;;;;4.40;3.80;;;;;;;21.00;31.96;101312.84;102748;1300;82967;-86
2024/04/11 00:27:42;;;;;;;5.30;4.10;;;;;;;20.99;31.93;101315.86;102655;1304;70043;-86
2024/04/11 00:30:09;;;;;;;4.30;3.60;;;;;;;20.99;31.81;101315.44;102798;1300;70068;-86
2024/04/11 00:32:34;;;;;;;5.10;3.80;;;;;;;20.99;31.94;101314.16;103697;1304;70055;-87
2024/04/11 00:35:01;;;;;;;4.30;3.90;;;;;;;20.98;32.02;101314.77;103851;1300;70983;-87
2024/04/11 00:37:31;;;;;;;6.40;4.30;;;;;;;20.98;32.08;101312.77;103128;1302;70129;-87
2024/04/11 00:40:02;;;;;;;4.10;3.70;;;;;;;20.99;31.97;101313.70;102630;1305;72529;-91
2024/04/11 00:42:28;;;;;;;4.10;3.60;;;;;;;20.99;32.01;101315.45;102698;1300;70316;-86
2024/04/11 00:44:54;;;;;;;6.00;3.80;;;;;;;20.99;32.02;101316.77;102843;1300;70085;-87
2024/04/11 00:47:24;;;;;;;4.30;3.80;;;;;;;20.99;31.97;101319.70;102848;1305;70145;-87
2024/04/11 00:49:50;;;;;;;4.80;4.10;;;;;;;20.98;31.98;101323.93;102724;1305;82823;-87
2024/04/11 00:52:16;;;;;;;5.50;4.00;;;;;;;20.98;31.91;101318.55;102701;1305;69969;-87
2024/04/11 00:54:42;;;;;;;4.20;3.50;;;;;;;20.98;32.06;101314.71;102631;1300;70106;-87
2024/04/11 00:57:08;;;;;;;6.40;4.10;;;;;;;20.97;32.08;101312.41;102713;1300;70069;-87
2024/04/11 00:59:42;;;;;;;6.30;4.30;;;;;;;20.98;32.13;101310.55;102797;1300;76591;-87
2024/04/11 01:02:11;;;;;;;4.40;3.90;;;;;;;20.97;32.07;101311.95;102938;1308;70243;-87
2024/04/11 01:04:36;;;;;;;5.60;4.10;;;;;;;20.97;32.10;101313.58;102791;1300;72519;-87
2024/04/11 01:07:08;;;;;;;4.20;3.60;;;;;;;20.97;32.12;101311.41;102922;1305;70056;-88
2024/04/11 01:09:44;;;;;;;5.70;4.20;;;;;;;20.97;32.14;101310.04;102848;1305;70033;-87
2024/04/11 01:12:13;;;;;;;6.30;4.00;;;;;;;20.96;32.12;101317.45;103015;1305;75444;-87
2024/04/11 01:14:43;;;;;;;5.50;4.30;;;;;;;20.97;32.17;101316.08;103085;1300;84023;-87
2024/04/11 01:17:16;;;;;;;5.10;4.00;;;;;;;20.97;31.98;101312.70;103697;1300;72497;-87
2024/04/11 01:19:50;;;;;;;7.10;4.20;;;;;;;20.97;32.31;101311.73;103042;1300;69967;-87
2024/04/11 01:22:18;;;;;;;4.70;3.80;;;;;;;20.97;32.27;101307.38;103996;1300;69993;-87
2024/04/11 01:27:29;;;;;;;4.80;4.20;;;;;;;20.97;32.21;101308.34;102854;1299;83133;-88
2024/04/11 01:29:55;;;;;;;4.70;3.80;;;;;;;20.97;32.20;101307.39;105299;1299;72309;-86
2024/04/11 01:32:21;;;;;;;4.30;3.80;;;;;;;20.98;32.25;101310.40;105361;1299;70010;-86
2024/04/11 01:34:47;;;;;;;5.50;3.90;;;;;;;20.99;32.27;101309.29;105327;1298;70492;-86
2024/04/11 01:37:13;;;;;;;5.20;4.20;;;;;;;20.99;32.36;101313.35;104723;1300;69936;-86
2024/04/11 01:39:38;;;;;;;6.00;4.20;;;;;;;21.01;32.32;101314.80;104179;1300;69992;-86
2024/04/11 01:42:04;;;;;;;4.60;3.80;;;;;;;21.01;32.28;101312.05;103352;1299;69997;-86
2024/04/11 01:44:31;;;;;;;4.60;3.90;;;;;;;21.02;32.25;101321.08;103055;1302;70065;-85
2024/04/11 01:46:57;;;;;;;4.50;3.90;;;;;;;21.02;32.26;101320.91;102866;1300;69972;-86
2024/04/11 01:49:24;;;;;;;4.90;4.10;;;;;;;21.02;32.13;101323.31;102846;1300;70059;-86
2024/04/11 01:51:54;;;;;;;4.20;3.40;;;;;;;21.02;32.32;101323.48;102803;1300;71677;-91
2024/04/11 01:54:19;;;;;;;4.90;4.20;;;;;;;21.01;32.33;101323.20;102797;1300;70058;-85
2024/04/11 01:56:45;;;;;;;4.60;3.80;;;;;;;21.01;32.30;101326.01;102722;1300;70013;-85
2024/04/11 01:59:11;;;;;;;4.50;3.50;;;;;;;21.00;32.14;101322.77;102906;1300;70010;-86
2024/04/11 02:01:37;;;;;;;4.90;4.30;;;;;;;21.00;32.32;101324.50;102855;1300;70007;-86
2024/04/11 02:04:05;;;;;;;5.10;3.90;;;;;;;20.99;32.33;101329.77;102928;1300;70026;-86
2024/04/11 02:09:22;;;;;;;4.50;3.80;;;;;;;20.98;32.30;101325.66;103057;1299;71046;-86
2024/04/11 02:11:51;;;;;;;4.60;4.10;;;;;;;20.98;32.45;101329.27;103146;1301;75413;-85
2024/04/11 02:14:19;;;;;;;4.60;3.90;;;;;;;20.97;32.41;101327.39;103510;1304;82797;-86
2024/04/11 02:16:45;;;;;;;5.00;4.10;;;;;;;20.97;32.36;101329.33;103020;1303;70062;-86
2024/04/11 02:19:12;;;;;;;4.40;3.60;;;;;;;20.97;32.44;101327.23;102971;1303;70033;-86
2024/04/11 02:21:48;;;;;;;5.10;4.30;;;;;;;20.97;32.33;101331.23;102863;1301;69976;-91
2024/04/11 02:24:16;;;;;;;4.60;4.00;;;;;;;20.96;32.38;101330.75;102787;1303;75066;-86
2024/04/11 02:26:48;;;;;;;10.00;4.30;;;;;;;20.95;32.37;101335.60;102785;1299;84177;-86
2024/04/11 02:29:18;;;;;;;4.50;3.80;;;;;;;20.95;32.42;101333.19;103006;1299;72435;-86
2024/04/11 02:31:43;;;;;;;4.40;3.90;;;;;;;20.96;32.51;101336.16;102958;1305;70146;-86
2024/04/11 02:34:09;;;;;;;6.30;4.30;;;;;;;20.95;32.53;101337.39;102976;1299;69994;-87
2024/04/11 02:36:43;;;;;;;4.20;3.80;;;;;;;20.95;32.49;101334.67;102921;1300;70075;-91
2024/04/11 02:39:12;;;;;;;9.50;5.50;;;;;;;20.95;32.49;101337.27;102653;1300;82909;-85
2024/04/11 02:41:41;;;;;;;7.90;5.00;;;;;;;20.94;32.61;101338.50;102657;1304;71557;-86
2024/04/11 02:44:07;;;;;;;6.50;4.90;;;;;;;20.94;32.43;101340.80;102702;1299;70034;-85
2024/04/11 02:46:35;;;;;;;5.90;4.70;;;;;;;20.93;32.42;101342.73;102635;1300;70141;-86
2024/04/11 02:49:05;;;;;;;6.60;4.80;;;;;;;20.92;32.56;101339.81;102769;1304;75196;-85
2024/04/11 02:51:39;;;;;;;7.50;4.90;;;;;;;20.93;32.58;101337.46;102617;1304;70056;-91
2024/04/11 02:54:09;;;;;;;5.20;4.50;;;;;;;20.92;32.60;101340.32;102840;1300;72607;-85
2024/04/11 02:56:36;;;;;;;9.90;5.20;;;;;;;20.92;32.51;101338.58;102674;1300;69979;-85
2024/04/11 02:59:04;;;;;;;6.40;4.60;;;;;;;20.91;32.47;101342.00;102704;1300;69925;-85
2024/04/11 03:01:31;;;;;;;10.70;6.00;;;;;;;20.91;32.43;101348.64;102901;1305;75269;-86
2024/04/11 03:03:59;;;;;;;11.90;6.50;;;;;;;20.90;32.35;101348.79;103108;1300;84118;-86
2024/04/11 03:09:09;;;;;;;10.90;5.80;;;;;;;20.90;32.55;101354.25;102891;1302;70005;-86
2024/04/11 03:11:35;;;;;;;8.70;4.70;;;;;;;20.90;32.59;101352.83;103102;1302;70001;-86
2024/04/11 03:14:01;;;;;;;7.30;4.80;;;;;;;20.91;32.74;101355.95;103090;1302;70059;-86
2024/04/11 03:16:30;;;;;;;6.80;4.60;;;;;;;20.92;32.91;101357.98;103262;1303;70014;-86
2024/04/11 03:18:59;;;;;;;8.70;5.40;;;;;;;20.94;32.80;101357.39;102779;1302;72353;-86
2024/04/11 03:21:34;;;;;;;18.60;5.80;;;;;;;20.95;32.90;101356.92;102826;1305;70017;-92
2024/04/11 03:24:00;;;;;;;57.50;10.00;;;;;;;20.96;32.89;101360.52;102841;1303;70049;-87
2024/04/11 03:26:26;;;;;;;30.60;9.00;;;;;;;20.96;32.88;101368.05;103068;1302;69979;-87
2024/04/11 03:28:53;;;;;;;34.90;9.50;;;;;;;20.96;32.94;101375.15;103140;1302;69979;-86
2024/04/11 03:31:21;;;;;;;30.00;8.50;;;;;;;20.93;32.85;101373.13;103860;1303;70043;-87
2024/04/11 03:33:46;;;;;;;23.50;8.90;;;;;;;20.89;33.06;101380.13;104004;1302;70420;-87
2024/04/11 03:36:12;;;;;;;23.80;9.40;;;;;;;20.79;32.87;101384.83;103838;1303;69926;-87
2024/04/11 03:38:38;;;;;;;26.80;9.80;;;;;;;20.65;32.92;101385.98;103595;1302;68656;-87
2024/04/11 03:43:42;;;;;;;18.10;9.30;;;;;;;20.37;33.10;101397.42;103379;1302;72561;-87
2024/04/11 03:46:21;;;;;;;20.10;8.30;;;;;;;20.28;33.17;101390.98;103222;1305;70049;-87
2024/04/11 03:48:56;;;;;;;14.70;8.50;;;;;;;20.22;33.30;101392.73;103203;1305;70094;-87
2024/04/11 03:51:29;;;;;;;15.00;8.20;;;;;;;20.21;33.63;101393.73;103309;1305;69991;-92
2024/04/11 03:53:56;;;;;;;18.40;8.10;;;;;;;20.22;33.56;101394.66;103157;1305;82920;-87
2024/04/11 03:56:23;;;;;;;15.40;7.90;;;;;;;20.23;33.70;101395.30;103315;1300;69940;-86
2024/04/11 03:58:49;;;;;;;11.70;7.80;;;;;;;20.25;33.53;101395.99;103338;1305;69995;-87
2024/04/11 04:01:16;;;;;;;15.60;7.80;;;;;;;20.27;33.64;101397.36;103403;1305;69950;-87
2024/04/11 04:03:43;;;;;;;18.10;7.80;;;;;;;20.27;33.47;101398.54;103699;1305;75281;-87
2024/04/11 04:08:54;;;;;;;17.80;7.90;;;;;;;20.31;33.60;101405.54;103857;1300;72506;-89
2024/04/11 04:11:48;;;;;;;17.20;8.50;;;;;;;20.30;33.59;101402.68;104131;1299;70019;-89
2024/04/11 04:14:14;;;;;;;15.00;7.90;;;;;;;20.31;33.65;101403.51;104170;1300;70046;-88
2024/04/11 04:16:39;;;;;;;14.70;8.60;;;;;;;20.31;33.58;101401.98;104333;1300;69978;-88
2024/04/11 04:19:05;;;;;;;15.60;8.00;;;;;;;20.31;33.65;101409.60;104385;1297;70019;-89
2024/04/11 04:21:31;;;;;;;19.00;9.00;;;;;;;20.32;33.50;101410.05;104378;1299;67804;-89
2024/04/11 04:24:05;;;;;;;20.10;8.90;;;;;;;20.33;33.51;101414.98;104552;1300;67915;-89
2024/04/11 04:26:57;;;;;;;23.70;8.30;;;;;;;20.30;33.52;101415.66;104744;1299;69860;-86
2024/04/11 04:29:25;;;;;;;28.10;8.40;;;;;;;20.28;33.55;101422.42;104439;1300;72328;-87
2024/04/11 05:09:14;;;;;;;32.30;8.50;;;;;;;19.52;33.62;101465.38;100972;1300;70076;-90
2024/04/11 06:06:53;;;;;;;18.70;7.80;;;;;;;20.32;33.25;101534.58;85907;1308;82303;31
2024/04/11 06:19:09;;;;;;;20.70;6.40;;;;;;;20.47;32.98;101548.10;104412;1301;76342;-91
2024/04/11 07:03:25;;;;;;;18.50;7.10;;;;;;;20.63;31.44;101596.98;85290;1306;67260;-88
2024/04/11 07:12:36;;;;;;;17.90;6.50;;;;;;;20.68;31.54;101602.90;86936;1296;71484;31
2024/04/11 07:28:47;;;;;;;;;;;;;;;;;;;;;
2024/04/11 07:52:23;;;;;;;15.70;10.00;;;;;;;20.92;31.50;101631.09;89334;1303;1433863;-89
2024/04/11 08:01:52;;;;;;;26.90;12.10;;;;;;;20.96;31.76;101630.21;105395;1299;73247;-89
2024/04/11 08:54:41;;;;;;;27.40;11.20;;;;;;;21.18;32.84;101643.30;86387;1302;66973;-89
2024/04/11 09:00:27;;;;;;;30.90;16.30;;;;;;;21.22;33.08;101638.13;86844;1308;552102;-90
2024/04/11 09:02:55;;;;;;;21.90;16.30;;;;;;;21.23;33.12;101636.36;104736;1302;72171;-89
2024/04/11 09:08:40;;;;;;;;;;;;;;;;;;;;;
2024/04/11 09:14:02;;;;;;;21.60;11.60;;;;;;;21.26;33.13;101632.58;104540;1306;83155;-89
2024/04/11 09:19:23;;;;;;;17.60;9.60;;;;;;;21.27;33.32;101633.31;104718;1301;68586;-89
2024/04/11 09:31:48;;;;;;;15.30;9.40;;;;;;;21.28;33.34;101640.85;104756;1305;71485;-89
2024/04/11 09:37:23;;;;;;;21.80;8.80;;;;;;;21.31;33.63;101645.00;104729;1306;68020;-91
2024/04/11 09:39:56;;;;;;;18.90;9.30;;;;;;;21.33;33.68;101642.42;104860;1302;75091;-90
2024/04/11 09:46:06;;;;;;;;;;;;;;;;;;;;;
2024/04/11 09:52:20;;;;;;;19.50;7.50;;;;;;;21.37;33.60;101644.23;101544;1301;555239;-89
2024/04/11 09:54:46;;;;;;;14.30;7.50;;;;;;;21.39;33.81;101648.56;104227;1311;75401;-87
2024/04/11 09:57:14;;;;;;;14.50;7.40;;;;;;;21.38;33.81;101644.88;104605;1304;70050;-90
2024/04/11 10:02:30;;;;;;;22.50;7.30;;;;;;;21.42;33.86;101646.06;104481;1302;68265;-88
2024/04/11 10:11:22;;;;;;;31.70;7.90;;;;;;;21.46;34.36;101647.75;83012;1328;80378;-89
